sensor_id;sensor_type;location;lat;lon;timestamp;P1;durP1;ratioP1;P2;durP2;ratioP2
3274;SDS011;1649;53.672;10.064;2022-12-07T00:00:55;29.53;;;16.13;;
3274;SDS011;1649;53.672;10.064;2022-12-07T00:03:28;33.13;;;16.90;;
3274;SDS011;1649;53.672;10.064;2022-12-07T00:05:56;37.23;;;17.70;;
3274;SDS011;1649;53.672;10.064;2022-12-07T00:08:22;28.97;;;16.33;;
3274;SDS011;1649;53.672;10.064;2022-12-07T00:10:48;42.30;;;21.23;;
3274;SDS011;1649;53.672;10.064;2022-12-07T00:13:13;30.00;;;15.40;;
3274;SDS011;1649;53.672;10.064;2022-12-07T00:15:39;32.57;;;15.63;;
3274;SDS011;1649;53.672;10.064;2022-12-07T00:18:04;36.60;;;18.83;;
3274;SDS011;1649;53.672;10.064;2022-12-07T00:20:30;33.60;;;17.47;;
3274;SDS011;1649;53.672;10.064;2022-12-07T00:22:56;30.73;;;16.30;;
3274;SDS011;1649;53.672;10.064;2022-12-07T00:25:21;27.87;;;15.10;;
3274;SDS011;1649;53.672;10.064;2022-12-07T00:27:47;28.87;;;15.70;;
3274;SDS011;1649;53.672;10.064;2022-12-07T00:30:12;29.83;;;17.10;;
3274;SDS011;1649;53.672;10.064;2022-12-07T00:32:38;32.33;;;17.53;;
3274;SDS011;1649;53.672;10.064;2022-12-07T00:35:03;60.17;;;24.97;;
3274;SDS011;1649;53.672;10.064;2022-12-07T00:37:29;37.17;;;18.50;;
3274;SDS011;1649;53.672;10.064;2022-12-07T00:39:55;30.10;;;17.13;;
3274;SDS011;1649;53.672;10.064;2022-12-07T00:42:20;53.30;;;23.23;;
3274;SDS011;1649;53.672;10.064;2022-12-07T00:44:46;33.40;;;17.67;;
3274;SDS011;1649;53.672;10.064;2022-12-07T00:47:11;41.33;;;18.97;;
3274;SDS011;1649;53.672;10.064;2022-12-07T00:49:37;76.77;;;29.90;;
3274;SDS011;1649;53.672;10.064;2022-12-07T00:52:02;44.57;;;20.83;;
3274;SDS011;1649;53.672;10.064;2022-12-07T00:54:28;53.70;;;23.57;;
3274;SDS011;1649;53.672;10.064;2022-12-07T00:56:53;35.30;;;18.70;;
3274;SDS011;1649;53.672;10.064;2022-12-07T00:59:19;41.20;;;19.73;;
3274;SDS011;1649;53.672;10.064;2022-12-07T01:01:44;36.47;;;16.50;;
3274;SDS011;1649;53.672;10.064;2022-12-07T01:04:10;32.07;;;17.63;;
3274;SDS011;1649;53.672;10.064;2022-12-07T01:06:35;39.97;;;19.97;;
3274;SDS011;1649;53.672;10.064;2022-12-07T01:09:01;59.83;;;24.97;;
3274;SDS011;1649;53.672;10.064;2022-12-07T01:11:27;32.77;;;16.97;;
3274;SDS011;1649;53.672;10.064;2022-12-07T01:13:55;31.47;;;15.33;;
3274;SDS011;1649;53.672;10.064;2022-12-07T01:16:22;36.93;;;17.50;;
3274;SDS011;1649;53.672;10.064;2022-12-07T01:18:53;58.30;;;25.10;;
3274;SDS011;1649;53.672;10.064;2022-12-07T01:21:23;34.60;;;17.00;;
3274;SDS011;1649;53.672;10.064;2022-12-07T01:23:53;29.27;;;15.20;;
3274;SDS011;1649;53.672;10.064;2022-12-07T01:26:20;38.97;;;18.50;;
3274;SDS011;1649;53.672;10.064;2022-12-07T01:28:47;30.40;;;14.70;;
3274;SDS011;1649;53.672;10.064;2022-12-07T01:31:14;31.60;;;16.00;;
3274;SDS011;1649;53.672;10.064;2022-12-07T01:33:42;35.67;;;16.03;;
3274;SDS011;1649;53.672;10.064;2022-12-07T01:36:13;46.23;;;20.30;;
3274;SDS011;1649;53.672;10.064;2022-12-07T01:38:45;44.97;;;18.43;;
3274;SDS011;1649;53.672;10.064;2022-12-07T01:41:13;51.03;;;19.87;;
3274;SDS011;1649;53.672;10.064;2022-12-07T01:44:22;29.07;;;14.50;;
3274;SDS011;1649;53.672;10.064;2022-12-07T01:46:33;27.67;;;13.50;;
3274;SDS011;1649;53.672;10.064;2022-12-07T01:48:58;55.07;;;21.53;;
3274;SDS011;1649;53.672;10.064;2022-12-07T01:51:25;30.67;;;13.73;;
3274;SDS011;1649;53.672;10.064;2022-12-07T01:53:51;48.33;;;20.10;;
3274;SDS011;1649;53.672;10.064;2022-12-07T01:56:18;32.83;;;14.27;;
3274;SDS011;1649;53.672;10.064;2022-12-07T01:58:47;37.97;;;16.07;;
3274;SDS011;1649;53.672;10.064;2022-12-07T02:01:13;51.77;;;21.73;;
3274;SDS011;1649;53.672;10.064;2022-12-07T02:03:40;26.13;;;13.20;;
3274;SDS011;1649;53.672;10.064;2022-12-07T03:17:07;64.40;;;20.37;;
3274;SDS011;1649;53.672;10.064;2022-12-07T03:19:37;15.53;;;5.83;;
3274;SDS011;1649;53.672;10.064;2022-12-07T03:22:08;49.07;;;17.10;;
3274;SDS011;1649;53.672;10.064;2022-12-07T03:24:43;19.03;;;8.73;;
3274;SDS011;1649;53.672;10.064;2022-12-07T03:27:21;24.63;;;10.13;;
3274;SDS011;1649;53.672;10.064;2022-12-07T03:29:56;33.97;;;12.40;;
3274;SDS011;1649;53.672;10.064;2022-12-07T03:32:30;12.60;;;5.37;;
3274;SDS011;1649;53.672;10.064;2022-12-07T03:35:05;15.50;;;5.20;;
3274;SDS011;1649;53.672;10.064;2022-12-07T03:40:18;13.57;;;6.50;;
3274;SDS011;1649;53.672;10.064;2022-12-07T03:43:00;10.60;;;4.50;;
3274;SDS011;1649;53.672;10.064;2022-12-07T03:45:42;19.37;;;7.90;;
3274;SDS011;1649;53.672;10.064;2022-12-07T03:50:49;12.13;;;4.83;;
3274;SDS011;1649;53.672;10.064;2022-12-07T03:53:40;10.57;;;4.20;;
3274;SDS011;1649;53.672;10.064;2022-12-07T03:56:08;40.07;;;16.27;;
3274;SDS011;1649;53.672;10.064;2022-12-07T03:58:35;18.53;;;7.77;;
3274;SDS011;1649;53.672;10.064;2022-12-07T04:01:01;12.90;;;5.07;;
3274;SDS011;1649;53.672;10.064;2022-12-07T04:03:27;17.40;;;5.60;;
3274;SDS011;1649;53.672;10.064;2022-12-07T04:05:53;13.97;;;5.70;;
3274;SDS011;1649;53.672;10.064;2022-12-07T04:08:19;17.03;;;5.40;;
3274;SDS011;1649;53.672;10.064;2022-12-07T04:10:44;7.83;;;4.07;;
3274;SDS011;1649;53.672;10.064;2022-12-07T04:13:10;29.93;;;11.53;;
3274;SDS011;1649;53.672;10.064;2022-12-07T04:15:35;15.73;;;5.97;;
3274;SDS011;1649;53.672;10.064;2022-12-07T04:18:01;26.70;;;10.00;;
3274;SDS011;1649;53.672;10.064;2022-12-07T04:20:27;24.27;;;9.83;;
3274;SDS011;1649;53.672;10.064;2022-12-07T04:22:52;18.00;;;7.97;;
3274;SDS011;1649;53.672;10.064;2022-12-07T04:25:18;14.63;;;6.33;;
3274;SDS011;1649;53.672;10.064;2022-12-07T04:27:43;10.50;;;4.33;;
3274;SDS011;1649;53.672;10.064;2022-12-07T04:30:09;9.63;;;3.80;;
3274;SDS011;1649;53.672;10.064;2022-12-07T04:32:34;50.80;;;17.67;;
3274;SDS011;1649;53.672;10.064;2022-12-07T04:35:00;14.20;;;4.50;;
3274;SDS011;1649;53.672;10.064;2022-12-07T04:37:25;26.77;;;10.60;;
3274;SDS011;1649;53.672;10.064;2022-12-07T04:39:51;22.33;;;8.10;;
3274;SDS011;1649;53.672;10.064;2022-12-07T04:42:16;21.67;;;8.13;;
3274;SDS011;1649;53.672;10.064;2022-12-07T04:44:42;35.07;;;13.40;;
3274;SDS011;1649;53.672;10.064;2022-12-07T04:47:07;32.30;;;9.07;;
3274;SDS011;1649;53.672;10.064;2022-12-07T04:49:33;27.27;;;10.93;;
3274;SDS011;1649;53.672;10.064;2022-12-07T04:51:59;40.77;;;17.30;;
3274;SDS011;1649;53.672;10.064;2022-12-07T04:54:24;13.30;;;5.70;;
3274;SDS011;1649;53.672;10.064;2022-12-07T04:56:50;43.00;;;18.23;;
3274;SDS011;1649;53.672;10.064;2022-12-07T04:59:15;17.57;;;7.67;;
3274;SDS011;1649;53.672;10.064;2022-12-07T05:01:41;33.53;;;12.33;;
3274;SDS011;1649;53.672;10.064;2022-12-07T05:04:08;22.17;;;8.60;;
3274;SDS011;1649;53.672;10.064;2022-12-07T05:06:34;15.05;;;6.30;;
3274;SDS011;1649;53.672;10.064;2022-12-07T05:08:59;11.43;;;5.17;;
3274;SDS011;1649;53.672;10.064;2022-12-07T05:11:25;31.47;;;13.00;;
3274;SDS011;1649;53.672;10.064;2022-12-07T05:14:03;30.60;;;11.43;;
3274;SDS011;1649;53.672;10.064;2022-12-07T05:16:31;43.47;;;14.33;;
3274;SDS011;1649;53.672;10.064;2022-12-07T05:18:57;37.30;;;14.97;;
3274;SDS011;1649;53.672;10.064;2022-12-07T05:21:22;32.87;;;14.20;;
3274;SDS011;1649;53.672;10.064;2022-12-07T05:23:48;45.63;;;18.97;;
3274;SDS011;1649;53.672;10.064;2022-12-07T05:26:14;49.53;;;19.43;;
3274;SDS011;1649;53.672;10.064;2022-12-07T05:28:39;26.63;;;9.97;;
3274;SDS011;1649;53.672;10.064;2022-12-07T05:31:05;20.00;;;8.73;;
3274;SDS011;1649;53.672;10.064;2022-12-07T05:33:30;25.80;;;8.37;;
3274;SDS011;1649;53.672;10.064;2022-12-07T05:35:56;24.90;;;12.50;;
3274;SDS011;1649;53.672;10.064;2022-12-07T05:38:21;39.53;;;16.10;;
3274;SDS011;1649;53.672;10.064;2022-12-07T05:40:47;48.90;;;20.17;;
3274;SDS011;1649;53.672;10.064;2022-12-07T05:43:12;20.37;;;8.37;;
3274;SDS011;1649;53.672;10.064;2022-12-07T05:45:38;50.97;;;22.40;;
3274;SDS011;1649;53.672;10.064;2022-12-07T05:48:04;17.10;;;7.43;;
3274;SDS011;1649;53.672;10.064;2022-12-07T05:50:29;16.07;;;6.80;;
3274;SDS011;1649;53.672;10.064;2022-12-07T05:52:55;37.37;;;17.53;;
3274;SDS011;1649;53.672;10.064;2022-12-07T05:55:20;37.23;;;15.43;;
3274;SDS011;1649;53.672;10.064;2022-12-07T05:57:46;29.67;;;11.80;;
3274;SDS011;1649;53.672;10.064;2022-12-07T06:00:30;18.50;;;9.57;;
3274;SDS011;1649;53.672;10.064;2022-12-07T06:02:56;21.67;;;9.35;;
3274;SDS011;1649;53.672;10.064;2022-12-07T06:05:22;56.03;;;21.80;;
3274;SDS011;1649;53.672;10.064;2022-12-07T06:07:47;28.57;;;11.77;;
3274;SDS011;1649;53.672;10.064;2022-12-07T06:10:13;14.73;;;7.00;;
3274;SDS011;1649;53.672;10.064;2022-12-07T06:12:39;18.10;;;8.27;;
3274;SDS011;1649;53.672;10.064;2022-12-07T06:15:07;32.73;;;14.23;;
3274;SDS011;1649;53.672;10.064;2022-12-07T06:17:33;22.13;;;10.80;;
3274;SDS011;1649;53.672;10.064;2022-12-07T06:19:59;22.30;;;9.20;;
3274;SDS011;1649;53.672;10.064;2022-12-07T06:22:24;16.60;;;8.57;;
3274;SDS011;1649;53.672;10.064;2022-12-07T06:24:50;13.63;;;7.47;;
3274;SDS011;1649;53.672;10.064;2022-12-07T06:27:15;12.67;;;6.73;;
3274;SDS011;1649;53.672;10.064;2022-12-07T06:29:41;15.03;;;6.97;;
3274;SDS011;1649;53.672;10.064;2022-12-07T06:32:06;15.07;;;8.60;;
3274;SDS011;1649;53.672;10.064;2022-12-07T06:34:32;17.63;;;9.17;;
3274;SDS011;1649;53.672;10.064;2022-12-07T06:36:58;23.30;;;10.77;;
3274;SDS011;1649;53.672;10.064;2022-12-07T06:39:24;19.67;;;8.37;;
3274;SDS011;1649;53.672;10.064;2022-12-07T06:41:51;35.10;;;14.37;;
3274;SDS011;1649;53.672;10.064;2022-12-07T06:44:17;24.60;;;12.67;;
3274;SDS011;1649;53.672;10.064;2022-12-07T06:46:43;38.45;;;17.15;;
3274;SDS011;1649;53.672;10.064;2022-12-07T06:49:09;22.80;;;11.40;;
3274;SDS011;1649;53.672;10.064;2022-12-07T06:51:35;17.67;;;8.13;;
3274;SDS011;1649;53.672;10.064;2022-12-07T06:54:02;45.90;;;19.90;;
3274;SDS011;1649;53.672;10.064;2022-12-07T06:56:28;22.53;;;8.90;;
3274;SDS011;1649;53.672;10.064;2022-12-07T06:58:54;12.07;;;6.53;;
3274;SDS011;1649;53.672;10.064;2022-12-07T07:01:20;41.80;;;19.27;;
3274;SDS011;1649;53.672;10.064;2022-12-07T07:03:45;14.03;;;6.30;;
3274;SDS011;1649;53.672;10.064;2022-12-07T07:06:12;15.07;;;7.22;;
3274;SDS011;1649;53.672;10.064;2022-12-07T07:08:38;60.90;;;29.13;;
3274;SDS011;1649;53.672;10.064;2022-12-07T07:11:04;19.85;;;8.75;;
3274;SDS011;1649;53.672;10.064;2022-12-07T07:13:31;26.27;;;10.10;;
3274;SDS011;1649;53.672;10.064;2022-12-07T07:15:57;54.40;;;21.23;;
3274;SDS011;1649;53.672;10.064;2022-12-07T07:18:23;29.70;;;13.13;;
3274;SDS011;1649;53.672;10.064;2022-12-07T07:20:50;13.88;;;7.00;;
3274;SDS011;1649;53.672;10.064;2022-12-07T07:23:16;29.65;;;13.18;;
3274;SDS011;1649;53.672;10.064;2022-12-07T07:25:42;20.60;;;9.97;;
3274;SDS011;1649;53.672;10.064;2022-12-07T07:28:07;18.20;;;7.83;;
3274;SDS011;1649;53.672;10.064;2022-12-07T07:30:33;49.03;;;21.30;;
3274;SDS011;1649;53.672;10.064;2022-12-07T07:32:59;12.67;;;5.50;;
3274;SDS011;1649;53.672;10.064;2022-12-07T07:35:26;56.47;;;26.37;;
3274;SDS011;1649;53.672;10.064;2022-12-07T07:37:53;46.67;;;20.83;;
3274;SDS011;1649;53.672;10.064;2022-12-07T07:40:19;11.87;;;5.57;;
3274;SDS011;1649;53.672;10.064;2022-12-07T07:42:46;16.30;;;6.97;;
3274;SDS011;1649;53.672;10.064;2022-12-07T07:45:13;12.13;;;5.10;;
3274;SDS011;1649;53.672;10.064;2022-12-07T07:47:38;13.50;;;6.00;;
3274;SDS011;1649;53.672;10.064;2022-12-07T07:50:04;17.97;;;8.70;;
3274;SDS011;1649;53.672;10.064;2022-12-07T07:52:30;11.67;;;5.37;;
3274;SDS011;1649;53.672;10.064;2022-12-07T07:54:56;33.30;;;15.60;;
3274;SDS011;1649;53.672;10.064;2022-12-07T07:57:21;25.83;;;12.00;;
3274;SDS011;1649;53.672;10.064;2022-12-07T07:59:47;13.33;;;6.23;;
3274;SDS011;1649;53.672;10.064;2022-12-07T08:02:16;27.57;;;11.60;;
3274;SDS011;1649;53.672;10.064;2022-12-07T08:04:43;32.70;;;14.50;;
3274;SDS011;1649;53.672;10.064;2022-12-07T08:07:10;31.87;;;15.60;;
3274;SDS011;1649;53.672;10.064;2022-12-07T08:09:35;35.47;;;14.50;;
3274;SDS011;1649;53.672;10.064;2022-12-07T08:35:09;42.67;;;16.33;;
3274;SDS011;1649;53.672;10.064;2022-12-07T08:37:34;13.33;;;3.80;;
3274;SDS011;1649;53.672;10.064;2022-12-07T08:40:00;15.97;;;4.17;;
3274;SDS011;1649;53.672;10.064;2022-12-07T08:42:25;14.30;;;4.57;;
3274;SDS011;1649;53.672;10.064;2022-12-07T08:44:55;16.00;;;5.10;;
3274;SDS011;1649;53.672;10.064;2022-12-07T08:47:22;37.63;;;16.67;;
3274;SDS011;1649;53.672;10.064;2022-12-07T08:49:49;36.00;;;16.03;;
3274;SDS011;1649;53.672;10.064;2022-12-07T08:52:17;10.63;;;4.83;;
3274;SDS011;1649;53.672;10.064;2022-12-07T08:54:43;6.20;;;3.10;;
3274;SDS011;1649;53.672;10.064;2022-12-07T08:57:10;19.77;;;8.00;;
3274;SDS011;1649;53.672;10.064;2022-12-07T08:59:36;15.13;;;3.47;;
3274;SDS011;1649;53.672;10.064;2022-12-07T09:02:02;10.30;;;4.90;;
3274;SDS011;1649;53.672;10.064;2022-12-07T09:04:29;19.20;;;6.57;;
3274;SDS011;1649;53.672;10.064;2022-12-07T09:06:54;7.97;;;3.83;;
3274;SDS011;1649;53.672;10.064;2022-12-07T09:09:20;27.23;;;11.53;;
3274;SDS011;1649;53.672;10.064;2022-12-07T09:11:46;10.13;;;3.83;;
3274;SDS011;1649;53.672;10.064;2022-12-07T09:14:11;13.43;;;5.63;;
3274;SDS011;1649;53.672;10.064;2022-12-07T09:16:37;10.87;;;3.30;;
3274;SDS011;1649;53.672;10.064;2022-12-07T09:19:03;33.83;;;15.97;;
3274;SDS011;1649;53.672;10.064;2022-12-07T09:21:29;22.37;;;11.23;;
3274;SDS011;1649;53.672;10.064;2022-12-07T09:23:54;11.50;;;5.23;;
3274;SDS011;1649;53.672;10.064;2022-12-07T09:26:20;9.43;;;4.83;;
3274;SDS011;1649;53.672;10.064;2022-12-07T09:28:45;7.47;;;3.60;;
3274;SDS011;1649;53.672;10.064;2022-12-07T09:31:11;15.43;;;8.03;;
3274;SDS011;1649;53.672;10.064;2022-12-07T09:33:36;15.93;;;7.00;;
3274;SDS011;1649;53.672;10.064;2022-12-07T09:36:02;6.93;;;2.93;;
3274;SDS011;1649;53.672;10.064;2022-12-07T09:38:28;18.43;;;8.23;;
3274;SDS011;1649;53.672;10.064;2022-12-07T09:40:55;15.70;;;6.00;;
3274;SDS011;1649;53.672;10.064;2022-12-07T09:43:21;13.37;;;5.87;;
3274;SDS011;1649;53.672;10.064;2022-12-07T09:45:50;18.40;;;8.93;;
3274;SDS011;1649;53.672;10.064;2022-12-07T09:48:19;7.70;;;3.70;;
3274;SDS011;1649;53.672;10.064;2022-12-07T09:50:47;7.83;;;2.97;;
3274;SDS011;1649;53.672;10.064;2022-12-07T09:53:20;21.40;;;8.90;;
3274;SDS011;1649;53.672;10.064;2022-12-07T09:55:50;24.93;;;11.80;;
3274;SDS011;1649;53.672;10.064;2022-12-07T09:58:20;9.40;;;3.53;;
3274;SDS011;1649;53.672;10.064;2022-12-07T10:00:50;19.67;;;8.00;;
3274;SDS011;1649;53.672;10.064;2022-12-07T10:03:20;10.23;;;3.97;;
3274;SDS011;1649;53.672;10.064;2022-12-07T10:05:47;9.43;;;3.60;;
3274;SDS011;1649;53.672;10.064;2022-12-07T10:08:14;7.47;;;2.60;;
3274;SDS011;1649;53.672;10.064;2022-12-07T10:10:44;6.00;;;2.60;;
3274;SDS011;1649;53.672;10.064;2022-12-07T10:13:11;11.03;;;5.53;;
3274;SDS011;1649;53.672;10.064;2022-12-07T10:18:36;7.13;;;2.97;;
3274;SDS011;1649;53.672;10.064;2022-12-07T10:26:36;12.27;;;3.30;;
3274;SDS011;1649;53.672;10.064;2022-12-07T10:29:21;14.87;;;4.07;;
3274;SDS011;1649;53.672;10.064;2022-12-07T10:34:35;11.00;;;2.47;;
3274;SDS011;1649;53.672;10.064;2022-12-07T10:39:47;6.80;;;3.60;;
3274;SDS011;1649;53.672;10.064;2022-12-07T10:42:18;8.03;;;1.70;;
3274;SDS011;1649;53.672;10.064;2022-12-07T10:44:46;8.13;;;2.27;;
3274;SDS011;1649;53.672;10.064;2022-12-07T10:50:03;9.00;;;1.97;;
3274;SDS011;1649;53.672;10.064;2022-12-07T10:58:31;8.23;;;3.57;;
3274;SDS011;1649;53.672;10.064;2022-12-07T11:01:12;12.13;;;2.90;;
3274;SDS011;1649;53.672;10.064;2022-12-07T11:03:55;9.67;;;2.40;;
3274;SDS011;1649;53.672;10.064;2022-12-07T11:06:46;5.60;;;2.13;;
3274;SDS011;1649;53.672;10.064;2022-12-07T11:14:58;11.90;;;2.90;;
3274;SDS011;1649;53.672;10.064;2022-12-07T11:17:48;12.57;;;2.33;;
3274;SDS011;1649;53.672;10.064;2022-12-07T11:26:16;8.60;;;3.37;;
3274;SDS011;1649;53.672;10.064;2022-12-07T11:31:51;11.53;;;1.87;;
3274;SDS011;1649;53.672;10.064;2022-12-07T11:37:34;6.30;;;1.87;;
3274;SDS011;1649;53.672;10.064;2022-12-07T11:40:24;15.00;;;3.03;;
3274;SDS011;1649;53.672;10.064;2022-12-07T11:43:04;9.60;;;2.00;;
3274;SDS011;1649;53.672;10.064;2022-12-07T11:45:44;9.03;;;2.20;;
3274;SDS011;1649;53.672;10.064;2022-12-07T11:48:25;6.83;;;1.87;;
3274;SDS011;1649;53.672;10.064;2022-12-07T11:50:59;6.77;;;2.10;;
3274;SDS011;1649;53.672;10.064;2022-12-07T11:53:29;7.23;;;1.80;;
3274;SDS011;1649;53.672;10.064;2022-12-07T11:58:50;7.70;;;1.87;;
3274;SDS011;1649;53.672;10.064;2022-12-07T12:01:53;7.47;;;1.87;;
3274;SDS011;1649;53.672;10.064;2022-12-07T12:04:47;5.90;;;1.70;;
3274;SDS011;1649;53.672;10.064;2022-12-07T12:07:22;6.60;;;1.50;;
3274;SDS011;1649;53.672;10.064;2022-12-07T12:09:54;7.90;;;1.73;;
3274;SDS011;1649;53.672;10.064;2022-12-07T12:17:52;12.03;;;2.03;;
3274;SDS011;1649;53.672;10.064;2022-12-07T12:23:17;6.10;;;1.90;;
3274;SDS011;1649;53.672;10.064;2022-12-07T12:33:48;14.20;;;1.90;;
3274;SDS011;1649;53.672;10.064;2022-12-07T12:39:13;9.53;;;1.50;;
3274;SDS011;1649;53.672;10.064;2022-12-07T12:51:46;12.37;;;2.03;;
3274;SDS011;1649;53.672;10.064;2022-12-07T12:54:14;7.40;;;2.47;;
3274;SDS011;1649;53.672;10.064;2022-12-07T12:56:48;7.33;;;2.40;;
3274;SDS011;1649;53.672;10.064;2022-12-07T13:02:35;7.50;;;2.80;;
3274;SDS011;1649;53.672;10.064;2022-12-07T13:04:59;10.60;;;3.60;;
3274;SDS011;1649;53.672;10.064;2022-12-07T13:13:08;8.77;;;3.43;;
3274;SDS011;1649;53.672;10.064;2022-12-07T13:25:55;4.93;;;1.40;;
3274;SDS011;1649;53.672;10.064;2022-12-07T13:28:34;7.63;;;1.80;;
3274;SDS011;1649;53.672;10.064;2022-12-07T13:31:13;6.27;;;1.97;;
3274;SDS011;1649;53.672;10.064;2022-12-07T13:33:49;5.30;;;1.67;;
3274;SDS011;1649;53.672;10.064;2022-12-07T13:36:17;6.23;;;1.33;;
3274;SDS011;1649;53.672;10.064;2022-12-07T13:38:52;6.60;;;1.57;;
3274;SDS011;1649;53.672;10.064;2022-12-07T13:41:28;4.13;;;1.33;;
3274;SDS011;1649;53.672;10.064;2022-12-07T13:43:59;6.47;;;2.30;;
3274;SDS011;1649;53.672;10.064;2022-12-07T13:51:53;5.07;;;1.50;;
3274;SDS011;1649;53.672;10.064;2022-12-07T13:54:20;5.23;;;2.40;;
3274;SDS011;1649;53.672;10.064;2022-12-07T13:56:50;5.90;;;2.17;;
3274;SDS011;1649;53.672;10.064;2022-12-07T13:59:18;6.40;;;1.33;;
3274;SDS011;1649;53.672;10.064;2022-12-07T14:01:50;5.10;;;1.37;;
3274;SDS011;1649;53.672;10.064;2022-12-07T14:06:56;5.57;;;2.60;;
3274;SDS011;1649;53.672;10.064;2022-12-07T14:09:23;5.80;;;1.80;;
3274;SDS011;1649;53.672;10.064;2022-12-07T14:11:51;4.90;;;2.07;;
3274;SDS011;1649;53.672;10.064;2022-12-07T14:14:20;10.80;;;2.00;;
3274;SDS011;1649;53.672;10.064;2022-12-07T14:17:00;9.30;;;2.37;;
3274;SDS011;1649;53.672;10.064;2022-12-07T14:19:46;9.97;;;1.50;;
3274;SDS011;1649;53.672;10.064;2022-12-07T14:22:22;8.53;;;1.30;;
3274;SDS011;1649;53.672;10.064;2022-12-07T14:27:52;8.10;;;4.30;;
3274;SDS011;1649;53.672;10.064;2022-12-07T14:30:27;8.67;;;3.00;;
3274;SDS011;1649;53.672;10.064;2022-12-07T14:32:59;8.43;;;2.70;;
3274;SDS011;1649;53.672;10.064;2022-12-07T14:35:26;6.33;;;2.87;;
3274;SDS011;1649;53.672;10.064;2022-12-07T14:37:52;4.70;;;1.67;;
3274;SDS011;1649;53.672;10.064;2022-12-07T14:40:20;3.27;;;1.43;;
3274;SDS011;1649;53.672;10.064;2022-12-07T14:42:50;9.90;;;4.53;;
3274;SDS011;1649;53.672;10.064;2022-12-07T14:45:20;13.37;;;3.40;;
3274;SDS011;1649;53.672;10.064;2022-12-07T14:47:47;7.93;;;3.90;;
3274;SDS011;1649;53.672;10.064;2022-12-07T14:50:13;12.80;;;6.10;;
3274;SDS011;1649;53.672;10.064;2022-12-07T14:52:40;5.27;;;2.60;;
3274;SDS011;1649;53.672;10.064;2022-12-07T14:55:27;8.47;;;3.13;;
3274;SDS011;1649;53.672;10.064;2022-12-07T14:57:55;6.17;;;2.23;;
3274;SDS011;1649;53.672;10.064;2022-12-07T15:00:22;8.87;;;4.10;;
3274;SDS011;1649;53.672;10.064;2022-12-07T15:02:50;13.97;;;6.40;;
3274;SDS011;1649;53.672;10.064;2022-12-07T15:05:16;8.90;;;4.33;;
3274;SDS011;1649;53.672;10.064;2022-12-07T15:07:43;9.23;;;4.40;;
3274;SDS011;1649;53.672;10.064;2022-12-07T15:10:25;12.20;;;6.27;;
3274;SDS011;1649;53.672;10.064;2022-12-07T15:12:55;8.50;;;3.10;;
3274;SDS011;1649;53.672;10.064;2022-12-07T15:15:41;12.87;;;3.90;;
3274;SDS011;1649;53.672;10.064;2022-12-07T15:18:07;11.63;;;3.33;;
3274;SDS011;1649;53.672;10.064;2022-12-07T15:20:32;13.03;;;4.07;;
3274;SDS011;1649;53.672;10.064;2022-12-07T15:22:58;9.40;;;4.73;;
3274;SDS011;1649;53.672;10.064;2022-12-07T15:25:23;10.10;;;5.17;;
3274;SDS011;1649;53.672;10.064;2022-12-07T15:27:49;8.20;;;4.10;;
3274;SDS011;1649;53.672;10.064;2022-12-07T15:30:15;8.90;;;4.60;;
3274;SDS011;1649;53.672;10.064;2022-12-07T15:32:40;10.23;;;4.80;;
3274;SDS011;1649;53.672;10.064;2022-12-07T15:35:06;8.80;;;4.40;;
3274;SDS011;1649;53.672;10.064;2022-12-07T15:37:32;7.00;;;3.63;;
3274;SDS011;1649;53.672;10.064;2022-12-07T15:39:57;9.20;;;2.33;;
3274;SDS011;1649;53.672;10.064;2022-12-07T15:42:23;9.63;;;3.77;;
3274;SDS011;1649;53.672;10.064;2022-12-07T15:44:48;6.63;;;2.80;;
3274;SDS011;1649;53.672;10.064;2022-12-07T15:47:30;8.53;;;5.80;;
3274;SDS011;1649;53.672;10.064;2022-12-07T15:50:01;7.03;;;3.80;;
3274;SDS011;1649;53.672;10.064;2022-12-07T15:52:30;6.10;;;3.30;;
3274;SDS011;1649;53.672;10.064;2022-12-07T15:54:57;8.90;;;3.97;;
3274;SDS011;1649;53.672;10.064;2022-12-07T15:57:24;7.37;;;2.60;;
3274;SDS011;1649;53.672;10.064;2022-12-07T15:59:50;9.10;;;4.47;;
3274;SDS011;1649;53.672;10.064;2022-12-07T16:02:16;7.60;;;2.57;;
3274;SDS011;1649;53.672;10.064;2022-12-07T16:04:41;8.23;;;4.43;;
3274;SDS011;1649;53.672;10.064;2022-12-07T16:07:07;11.53;;;5.40;;
3274;SDS011;1649;53.672;10.064;2022-12-07T16:09:33;6.33;;;3.67;;
3274;SDS011;1649;53.672;10.064;2022-12-07T16:11:58;8.83;;;3.90;;
3274;SDS011;1649;53.672;10.064;2022-12-07T16:14:24;8.33;;;3.70;;
3274;SDS011;1649;53.672;10.064;2022-12-07T16:16:49;6.80;;;3.40;;
3274;SDS011;1649;53.672;10.064;2022-12-07T16:19:15;11.90;;;5.93;;
3274;SDS011;1649;53.672;10.064;2022-12-07T16:21:40;10.30;;;5.10;;
3274;SDS011;1649;53.672;10.064;2022-12-07T16:24:07;8.50;;;4.50;;
3274;SDS011;1649;53.672;10.064;2022-12-07T16:26:33;7.30;;;3.90;;
3274;SDS011;1649;53.672;10.064;2022-12-07T16:28:58;9.00;;;4.57;;
3274;SDS011;1649;53.672;10.064;2022-12-07T16:31:26;10.00;;;5.30;;
3274;SDS011;1649;53.672;10.064;2022-12-07T16:33:53;10.00;;;5.57;;
3274;SDS011;1649;53.672;10.064;2022-12-07T16:36:19;9.57;;;5.60;;
3274;SDS011;1649;53.672;10.064;2022-12-07T16:38:47;10.30;;;5.60;;
3274;SDS011;1649;53.672;10.064;2022-12-07T16:41:13;11.27;;;5.70;;
3274;SDS011;1649;53.672;10.064;2022-12-07T16:43:39;12.27;;;4.80;;
3274;SDS011;1649;53.672;10.064;2022-12-07T16:46:04;11.93;;;5.13;;
3274;SDS011;1649;53.672;10.064;2022-12-07T16:48:30;12.90;;;5.90;;
3274;SDS011;1649;53.672;10.064;2022-12-07T16:50:56;11.00;;;6.93;;
3274;SDS011;1649;53.672;10.064;2022-12-07T16:53:22;9.70;;;5.80;;
3274;SDS011;1649;53.672;10.064;2022-12-07T16:55:49;9.18;;;5.53;;
3274;SDS011;1649;53.672;10.064;2022-12-07T16:58:15;12.18;;;7.55;;
3274;SDS011;1649;53.672;10.064;2022-12-07T17:00:42;9.50;;;5.70;;
3274;SDS011;1649;53.672;10.064;2022-12-07T17:03:08;16.90;;;7.85;;
3274;SDS011;1649;53.672;10.064;2022-12-07T17:05:38;10.80;;;6.33;;
3274;SDS011;1649;53.672;10.064;2022-12-07T17:08:08;15.63;;;7.75;;
3274;SDS011;1649;53.672;10.064;2022-12-07T17:10:35;12.80;;;7.75;;
3274;SDS011;1649;53.672;10.064;2022-12-07T17:13:03;10.65;;;6.97;;
3274;SDS011;1649;53.672;10.064;2022-12-07T17:16:22;12.55;;;6.97;;
3274;SDS011;1649;53.672;10.064;2022-12-07T17:18:41;9.70;;;5.23;;
3274;SDS011;1649;53.672;10.064;2022-12-07T17:21:07;13.40;;;7.20;;
3274;SDS011;1649;53.672;10.064;2022-12-07T17:23:36;10.77;;;5.83;;
3274;SDS011;1649;53.672;10.064;2022-12-07T17:26:09;11.07;;;5.60;;
3274;SDS011;1649;53.672;10.064;2022-12-07T17:28:39;9.00;;;4.28;;
3274;SDS011;1649;53.672;10.064;2022-12-07T17:31:06;11.67;;;6.07;;
3274;SDS011;1649;53.672;10.064;2022-12-07T17:33:33;11.10;;;5.68;;
3274;SDS011;1649;53.672;10.064;2022-12-07T17:35:59;14.67;;;9.40;;
3274;SDS011;1649;53.672;10.064;2022-12-07T17:38:24;23.63;;;10.77;;
3274;SDS011;1649;53.672;10.064;2022-12-07T17:40:50;19.10;;;11.43;;
3274;SDS011;1649;53.672;10.064;2022-12-07T17:43:16;19.23;;;11.57;;
3274;SDS011;1649;53.672;10.064;2022-12-07T17:45:41;15.50;;;8.90;;
3274;SDS011;1649;53.672;10.064;2022-12-07T17:48:06;15.17;;;9.07;;
3274;SDS011;1649;53.672;10.064;2022-12-07T17:50:32;12.70;;;8.33;;
3274;SDS011;1649;53.672;10.064;2022-12-07T17:53:17;13.02;;;8.05;;
3274;SDS011;1649;53.672;10.064;2022-12-07T17:55:42;14.80;;;8.47;;
3274;SDS011;1649;53.672;10.064;2022-12-07T17:58:08;16.37;;;9.90;;
3274;SDS011;1649;53.672;10.064;2022-12-07T18:00:33;13.80;;;9.30;;
3274;SDS011;1649;53.672;10.064;2022-12-07T18:03:05;20.48;;;8.40;;
3274;SDS011;1649;53.672;10.064;2022-12-07T18:05:33;16.30;;;10.65;;
3274;SDS011;1649;53.672;10.064;2022-12-07T18:07:59;24.48;;;13.77;;
3274;SDS011;1649;53.672;10.064;2022-12-07T18:10:25;24.23;;;15.10;;
3274;SDS011;1649;53.672;10.064;2022-12-07T18:12:50;24.73;;;13.90;;
3274;SDS011;1649;53.672;10.064;2022-12-07T18:15:35;23.40;;;14.63;;
3274;SDS011;1649;53.672;10.064;2022-12-07T18:18:01;21.33;;;13.27;;